Terminal Aerodrome Forecast
Issued by NWS

Home | Current Version | Previous Version | Text Only | Print | Product List | Glossary On
Versions: 1 2 3 4 5 6 7 8 9 10 11 12 13
000
FTAK31 PAJN 281100
TAFAGY
TAF
PAGY 281138Z 2812/2912 03004KT P6SM VCFG SKC
     FM281500 04010G15KT P6SM SKC
     FM281900 04015G28KT P6SM SKC
     FM290600 04015KT P6SM SKC
      AMD LTD TO CLD VIS AND WIND=

USA.gov is the U.S. government's official web portal to all federal, state and local government web resources and services.